sensor_id;sensor_type;location;lat;lon;timestamp;P1;durP1;ratioP1;P2;durP2;ratioP2
30233;SDS011;17046;52.074;4.748;2022-09-09T00:00:59;6.93;;;3.78;;
30233;SDS011;17046;52.074;4.748;2022-09-09T00:03:31;9.27;;;4.63;;
30233;SDS011;17046;52.074;4.748;2022-09-09T00:06:14;7.80;;;4.38;;
30233;SDS011;17046;52.074;4.748;2022-09-09T00:08:53;8.68;;;4.95;;
30233;SDS011;17046;52.074;4.748;2022-09-09T00:11:43;8.48;;;4.70;;
30233;SDS011;17046;52.074;4.748;2022-09-09T00:14:18;10.43;;;5.53;;
30233;SDS011;17046;52.074;4.748;2022-09-09T00:16:55;10.05;;;5.78;;
30233;SDS011;17046;52.074;4.748;2022-09-09T00:19:42;8.80;;;5.63;;
30233;SDS011;17046;52.074;4.748;2022-09-09T00:22:16;9.40;;;5.82;;
30233;SDS011;17046;52.074;4.748;2022-09-09T00:24:45;9.43;;;5.88;;
30233;SDS011;17046;52.074;4.748;2022-09-09T00:29:46;11.75;;;6.70;;
30233;SDS011;17046;52.074;4.748;2022-09-09T00:32:19;10.98;;;6.63;;
30233;SDS011;17046;52.074;4.748;2022-09-09T00:37:53;9.60;;;6.57;;
30233;SDS011;17046;52.074;4.748;2022-09-09T00:40:23;10.40;;;7.25;;
30233;SDS011;17046;52.074;4.748;2022-09-09T00:43:08;10.63;;;6.93;;
30233;SDS011;17046;52.074;4.748;2022-09-09T00:57:00;11.40;;;7.95;;
30233;SDS011;17046;52.074;4.748;2022-09-09T00:59:45;11.32;;;8.02;;
30233;SDS011;17046;52.074;4.748;2022-09-09T01:04:57;11.50;;;7.50;;
30233;SDS011;17046;52.074;4.748;2022-09-09T01:07:37;11.63;;;8.20;;
30233;SDS011;17046;52.074;4.748;2022-09-09T01:10:04;9.40;;;6.93;;
30233;SDS011;17046;52.074;4.748;2022-09-09T01:12:41;13.15;;;8.15;;
30233;SDS011;17046;52.074;4.748;2022-09-09T01:28:29;13.60;;;8.05;;
30233;SDS011;17046;52.074;4.748;2022-09-09T01:30:56;13.50;;;6.97;;
30233;SDS011;17046;52.074;4.748;2022-09-09T01:33:23;10.82;;;7.72;;
30233;SDS011;17046;52.074;4.748;2022-09-09T01:35:53;12.10;;;7.47;;
30233;SDS011;17046;52.074;4.748;2022-09-09T01:38:25;13.32;;;8.13;;
30233;SDS011;17046;52.074;4.748;2022-09-09T01:40:51;11.57;;;8.13;;
30233;SDS011;17046;52.074;4.748;2022-09-09T01:43:18;14.68;;;8.05;;
30233;SDS011;17046;52.074;4.748;2022-09-09T01:45:45;11.35;;;8.35;;
30233;SDS011;17046;52.074;4.748;2022-09-09T01:48:14;11.73;;;7.70;;
30233;SDS011;17046;52.074;4.748;2022-09-09T01:50:41;10.90;;;7.80;;
30233;SDS011;17046;52.074;4.748;2022-09-09T01:53:06;10.10;;;7.10;;
30233;SDS011;17046;52.074;4.748;2022-09-09T01:55:39;10.65;;;7.43;;
30233;SDS011;17046;52.074;4.748;2022-09-09T02:01:02;10.32;;;7.20;;
30233;SDS011;17046;52.074;4.748;2022-09-09T02:03:31;14.00;;;7.28;;
30233;SDS011;17046;52.074;4.748;2022-09-09T02:09:06;13.57;;;8.18;;
30233;SDS011;17046;52.074;4.748;2022-09-09T02:11:35;15.25;;;7.97;;
30233;SDS011;17046;52.074;4.748;2022-09-09T02:14:23;11.93;;;8.02;;
30233;SDS011;17046;52.074;4.748;2022-09-09T02:16:50;12.35;;;7.80;;
30233;SDS011;17046;52.074;4.748;2022-09-09T02:19:34;11.02;;;7.28;;
30233;SDS011;17046;52.074;4.748;2022-09-09T02:22:17;16.23;;;8.43;;
30233;SDS011;17046;52.074;4.748;2022-09-09T02:24:46;15.27;;;7.32;;
30233;SDS011;17046;52.074;4.748;2022-09-09T02:27:12;11.32;;;8.05;;
30233;SDS011;17046;52.074;4.748;2022-09-09T02:29:41;13.40;;;7.68;;
30233;SDS011;17046;52.074;4.748;2022-09-09T02:32:14;14.45;;;8.38;;
30233;SDS011;17046;52.074;4.748;2022-09-09T02:34:43;14.43;;;8.25;;
30233;SDS011;17046;52.074;4.748;2022-09-09T02:37:13;15.65;;;8.80;;
30233;SDS011;17046;52.074;4.748;2022-09-09T02:39:42;17.17;;;9.27;;
30233;SDS011;17046;52.074;4.748;2022-09-09T02:42:08;13.25;;;9.10;;
30233;SDS011;17046;52.074;4.748;2022-09-09T02:44:34;17.38;;;9.82;;
30233;SDS011;17046;52.074;4.748;2022-09-09T02:52:20;16.38;;;9.75;;
30233;SDS011;17046;52.074;4.748;2022-09-09T02:54:55;18.38;;;9.27;;
30233;SDS011;17046;52.074;4.748;2022-09-09T02:57:28;15.13;;;10.10;;
30233;SDS011;17046;52.074;4.748;2022-09-09T02:59:56;15.00;;;9.63;;
30233;SDS011;17046;52.074;4.748;2022-09-09T03:02:23;16.77;;;10.30;;
30233;SDS011;17046;52.074;4.748;2022-09-09T03:04:50;18.38;;;10.65;;
30233;SDS011;17046;52.074;4.748;2022-09-09T03:07:17;14.73;;;10.13;;
30233;SDS011;17046;52.074;4.748;2022-09-09T03:09:43;16.25;;;9.75;;
30233;SDS011;17046;52.074;4.748;2022-09-09T03:12:09;16.55;;;9.73;;
30233;SDS011;17046;52.074;4.748;2022-09-09T03:14:36;17.33;;;10.18;;
30233;SDS011;17046;52.074;4.748;2022-09-09T03:17:03;14.88;;;10.15;;
30233;SDS011;17046;52.074;4.748;2022-09-09T03:19:29;16.50;;;9.68;;
30233;SDS011;17046;52.074;4.748;2022-09-09T03:21:56;17.25;;;9.90;;
30233;SDS011;17046;52.074;4.748;2022-09-09T03:24:22;17.23;;;9.52;;
30233;SDS011;17046;52.074;4.748;2022-09-09T03:26:48;19.65;;;9.68;;
30233;SDS011;17046;52.074;4.748;2022-09-09T03:29:15;12.52;;;8.70;;
30233;SDS011;17046;52.074;4.748;2022-09-09T03:31:42;16.50;;;9.32;;
30233;SDS011;17046;52.074;4.748;2022-09-09T03:34:07;14.65;;;8.20;;
30233;SDS011;17046;52.074;4.748;2022-09-09T03:36:33;13.77;;;9.18;;
30233;SDS011;17046;52.074;4.748;2022-09-09T03:38:59;16.00;;;9.40;;
30233;SDS011;17046;52.074;4.748;2022-09-09T03:41:25;14.52;;;8.70;;
30233;SDS011;17046;52.074;4.748;2022-09-09T03:43:51;13.23;;;8.50;;
30233;SDS011;17046;52.074;4.748;2022-09-09T03:46:20;13.32;;;9.13;;
30233;SDS011;17046;52.074;4.748;2022-09-09T03:48:47;13.98;;;8.48;;
30233;SDS011;17046;52.074;4.748;2022-09-09T03:51:13;15.13;;;9.13;;
30233;SDS011;17046;52.074;4.748;2022-09-09T03:53:40;15.13;;;9.20;;
30233;SDS011;17046;52.074;4.748;2022-09-09T03:56:06;13.88;;;9.27;;
30233;SDS011;17046;52.074;4.748;2022-09-09T03:58:32;12.27;;;9.23;;
30233;SDS011;17046;52.074;4.748;2022-09-09T04:01:00;14.90;;;9.10;;
30233;SDS011;17046;52.074;4.748;2022-09-09T04:03:34;16.02;;;9.60;;
30233;SDS011;17046;52.074;4.748;2022-09-09T04:06:00;13.77;;;8.30;;
30233;SDS011;17046;52.074;4.748;2022-09-09T04:08:28;15.93;;;9.00;;
30233;SDS011;17046;52.074;4.748;2022-09-09T04:10:56;14.73;;;8.45;;
30233;SDS011;17046;52.074;4.748;2022-09-09T04:13:22;16.02;;;8.57;;
30233;SDS011;17046;52.074;4.748;2022-09-09T04:15:55;15.32;;;9.40;;
30233;SDS011;17046;52.074;4.748;2022-09-09T04:18:23;15.73;;;8.43;;
30233;SDS011;17046;52.074;4.748;2022-09-09T04:20:49;13.13;;;7.97;;
30233;SDS011;17046;52.074;4.748;2022-09-09T04:23:16;14.75;;;7.82;;
30233;SDS011;17046;52.074;4.748;2022-09-09T04:25:51;14.50;;;7.93;;
30233;SDS011;17046;52.074;4.748;2022-09-09T04:28:18;14.77;;;8.30;;
30233;SDS011;17046;52.074;4.748;2022-09-09T04:30:46;12.60;;;7.47;;
30233;SDS011;17046;52.074;4.748;2022-09-09T04:33:12;13.73;;;8.10;;
30233;SDS011;17046;52.074;4.748;2022-09-09T04:35:43;13.45;;;7.72;;
30233;SDS011;17046;52.074;4.748;2022-09-09T04:38:10;13.60;;;8.80;;
30233;SDS011;17046;52.074;4.748;2022-09-09T04:40:35;13.88;;;8.32;;
30233;SDS011;17046;52.074;4.748;2022-09-09T04:43:02;14.45;;;7.90;;
30233;SDS011;17046;52.074;4.748;2022-09-09T04:45:29;12.15;;;7.72;;
30233;SDS011;17046;52.074;4.748;2022-09-09T04:47:55;13.73;;;7.68;;
30233;SDS011;17046;52.074;4.748;2022-09-09T04:50:22;15.18;;;7.47;;
30233;SDS011;17046;52.074;4.748;2022-09-09T04:52:47;13.63;;;8.20;;
30233;SDS011;17046;52.074;4.748;2022-09-09T04:55:13;16.43;;;7.87;;
30233;SDS011;17046;52.074;4.748;2022-09-09T04:57:39;11.52;;;7.50;;
30233;SDS011;17046;52.074;4.748;2022-09-09T05:00:05;11.75;;;7.57;;
30233;SDS011;17046;52.074;4.748;2022-09-09T05:02:32;11.98;;;6.72;;
30233;SDS011;17046;52.074;4.748;2022-09-09T05:04:58;11.88;;;6.63;;
30233;SDS011;17046;52.074;4.748;2022-09-09T05:07:24;12.50;;;7.15;;
30233;SDS011;17046;52.074;4.748;2022-09-09T05:09:51;11.77;;;6.65;;
30233;SDS011;17046;52.074;4.748;2022-09-09T05:12:16;13.40;;;6.55;;
30233;SDS011;17046;52.074;4.748;2022-09-09T05:14:42;13.95;;;7.05;;
30233;SDS011;17046;52.074;4.748;2022-09-09T05:17:08;13.75;;;6.47;;
30233;SDS011;17046;52.074;4.748;2022-09-09T05:19:34;13.20;;;6.53;;
30233;SDS011;17046;52.074;4.748;2022-09-09T05:22:00;11.93;;;6.30;;
30233;SDS011;17046;52.074;4.748;2022-09-09T05:24:26;12.23;;;5.88;;
30233;SDS011;17046;52.074;4.748;2022-09-09T05:26:51;10.20;;;5.72;;
30233;SDS011;17046;52.074;4.748;2022-09-09T05:29:17;13.43;;;5.70;;
30233;SDS011;17046;52.074;4.748;2022-09-09T05:31:44;10.05;;;5.40;;
30233;SDS011;17046;52.074;4.748;2022-09-09T05:34:12;11.30;;;5.53;;
30233;SDS011;17046;52.074;4.748;2022-09-09T05:36:38;12.07;;;7.45;;
30233;SDS011;17046;52.074;4.748;2022-09-09T05:39:04;14.32;;;6.00;;
30233;SDS011;17046;52.074;4.748;2022-09-09T05:41:29;9.45;;;5.05;;
30233;SDS011;17046;52.074;4.748;2022-09-09T05:43:56;8.35;;;4.63;;
30233;SDS011;17046;52.074;4.748;2022-09-09T05:46:24;10.95;;;5.00;;
30233;SDS011;17046;52.074;4.748;2022-09-09T05:48:51;10.90;;;5.07;;
30233;SDS011;17046;52.074;4.748;2022-09-09T05:51:20;9.57;;;4.55;;
30233;SDS011;17046;52.074;4.748;2022-09-09T05:53:49;9.60;;;4.60;;
30233;SDS011;17046;52.074;4.748;2022-09-09T05:56:17;13.10;;;7.82;;
30233;SDS011;17046;52.074;4.748;2022-09-09T05:58:47;11.13;;;4.90;;
30233;SDS011;17046;52.074;4.748;2022-09-09T06:01:15;9.05;;;4.60;;
30233;SDS011;17046;52.074;4.748;2022-09-09T06:03:42;10.35;;;4.47;;
30233;SDS011;17046;52.074;4.748;2022-09-09T06:06:10;9.23;;;4.40;;
30233;SDS011;17046;52.074;4.748;2022-09-09T06:08:38;10.85;;;4.28;;
30233;SDS011;17046;52.074;4.748;2022-09-09T06:11:09;8.63;;;3.47;;
30233;SDS011;17046;52.074;4.748;2022-09-09T06:13:37;9.98;;;3.88;;
30233;SDS011;17046;52.074;4.748;2022-09-09T06:16:04;16.35;;;4.13;;
30233;SDS011;17046;52.074;4.748;2022-09-09T06:18:32;11.98;;;3.75;;
30233;SDS011;17046;52.074;4.748;2022-09-09T06:21:02;12.88;;;4.18;;
30233;SDS011;17046;52.074;4.748;2022-09-09T06:23:32;10.10;;;3.90;;
30233;SDS011;17046;52.074;4.748;2022-09-09T06:26:19;11.60;;;3.53;;
30233;SDS011;17046;52.074;4.748;2022-09-09T06:28:46;14.48;;;3.75;;
30233;SDS011;17046;52.074;4.748;2022-09-09T06:31:13;8.20;;;3.42;;
30233;SDS011;17046;52.074;4.748;2022-09-09T06:33:42;6.53;;;2.42;;
30233;SDS011;17046;52.074;4.748;2022-09-09T06:36:16;10.77;;;3.08;;
30233;SDS011;17046;52.074;4.748;2022-09-09T06:38:46;14.48;;;3.47;;
30233;SDS011;17046;52.074;4.748;2022-09-09T06:41:13;8.85;;;2.83;;
30233;SDS011;17046;52.074;4.748;2022-09-09T06:43:39;10.57;;;3.40;;
30233;SDS011;17046;52.074;4.748;2022-09-09T06:46:10;12.73;;;4.10;;
30233;SDS011;17046;52.074;4.748;2022-09-09T06:48:38;8.50;;;3.15;;
30233;SDS011;17046;52.074;4.748;2022-09-09T06:53:37;11.80;;;2.90;;
30233;SDS011;17046;52.074;4.748;2022-09-09T06:58:35;6.88;;;3.25;;
30233;SDS011;17046;52.074;4.748;2022-09-09T07:01:08;13.05;;;3.60;;
30233;SDS011;17046;52.074;4.748;2022-09-09T07:03:34;9.82;;;3.90;;
30233;SDS011;17046;52.074;4.748;2022-09-09T07:06:00;11.50;;;4.53;;
30233;SDS011;17046;52.074;4.748;2022-09-09T07:08:26;14.68;;;3.90;;
30233;SDS011;17046;52.074;4.748;2022-09-09T07:10:52;11.05;;;4.25;;
30233;SDS011;17046;52.074;4.748;2022-09-09T07:13:25;12.30;;;4.05;;
30233;SDS011;17046;52.074;4.748;2022-09-09T07:15:52;10.15;;;4.15;;
30233;SDS011;17046;52.074;4.748;2022-09-09T07:18:17;10.93;;;4.25;;
30233;SDS011;17046;52.074;4.748;2022-09-09T07:20:52;9.25;;;4.15;;
30233;SDS011;17046;52.074;4.748;2022-09-09T07:23:19;12.63;;;4.55;;
30233;SDS011;17046;52.074;4.748;2022-09-09T07:25:45;9.43;;;4.07;;
30233;SDS011;17046;52.074;4.748;2022-09-09T07:28:11;13.52;;;4.40;;
30233;SDS011;17046;52.074;4.748;2022-09-09T07:30:37;14.30;;;4.70;;
30233;SDS011;17046;52.074;4.748;2022-09-09T07:33:02;11.30;;;4.63;;
30233;SDS011;17046;52.074;4.748;2022-09-09T07:35:28;10.70;;;4.05;;
30233;SDS011;17046;52.074;4.748;2022-09-09T07:37:54;9.18;;;3.88;;
30233;SDS011;17046;52.074;4.748;2022-09-09T07:40:19;12.23;;;5.93;;
30233;SDS011;17046;52.074;4.748;2022-09-09T07:42:46;14.65;;;4.78;;
30233;SDS011;17046;52.074;4.748;2022-09-09T07:45:12;14.18;;;4.32;;
30233;SDS011;17046;52.074;4.748;2022-09-09T07:47:39;12.65;;;4.72;;
30233;SDS011;17046;52.074;4.748;2022-09-09T07:50:07;14.45;;;5.07;;
30233;SDS011;17046;52.074;4.748;2022-09-09T07:52:34;10.85;;;4.80;;
30233;SDS011;17046;52.074;4.748;2022-09-09T07:55:00;9.65;;;4.90;;
30233;SDS011;17046;52.074;4.748;2022-09-09T07:57:27;9.23;;;4.60;;
30233;SDS011;17046;52.074;4.748;2022-09-09T07:59:55;13.57;;;5.03;;
30233;SDS011;17046;52.074;4.748;2022-09-09T08:02:21;12.43;;;4.65;;
30233;SDS011;17046;52.074;4.748;2022-09-09T08:04:47;10.32;;;4.18;;
30233;SDS011;17046;52.074;4.748;2022-09-09T08:07:13;10.85;;;4.40;;
30233;SDS011;17046;52.074;4.748;2022-09-09T08:09:39;8.45;;;4.70;;
30233;SDS011;17046;52.074;4.748;2022-09-09T08:12:05;11.73;;;4.35;;
30233;SDS011;17046;52.074;4.748;2022-09-09T08:14:31;10.73;;;4.70;;
30233;SDS011;17046;52.074;4.748;2022-09-09T08:16:57;11.23;;;4.78;;
30233;SDS011;17046;52.074;4.748;2022-09-09T08:19:23;9.68;;;4.78;;
30233;SDS011;17046;52.074;4.748;2022-09-09T08:21:48;13.02;;;5.05;;
30233;SDS011;17046;52.074;4.748;2022-09-09T08:24:14;11.50;;;5.55;;
30233;SDS011;17046;52.074;4.748;2022-09-09T08:26:41;11.90;;;5.38;;
30233;SDS011;17046;52.074;4.748;2022-09-09T08:29:09;15.90;;;5.60;;
30233;SDS011;17046;52.074;4.748;2022-09-09T08:31:36;12.85;;;5.70;;
30233;SDS011;17046;52.074;4.748;2022-09-09T08:34:04;12.40;;;5.40;;
30233;SDS011;17046;52.074;4.748;2022-09-09T08:36:32;13.68;;;5.03;;
30233;SDS011;17046;52.074;4.748;2022-09-09T08:39:00;12.27;;;5.30;;
30233;SDS011;17046;52.074;4.748;2022-09-09T08:41:39;9.48;;;4.43;;
30233;SDS011;17046;52.074;4.748;2022-09-09T08:47:29;10.77;;;4.10;;
30233;SDS011;17046;52.074;4.748;2022-09-09T08:58:11;9.95;;;3.88;;
30233;SDS011;17046;52.074;4.748;2022-09-09T09:11:53;11.23;;;3.45;;
30233;SDS011;17046;52.074;4.748;2022-09-09T09:14:24;7.05;;;3.17;;
30233;SDS011;17046;52.074;4.748;2022-09-09T09:16:58;10.52;;;3.65;;
30233;SDS011;17046;52.074;4.748;2022-09-09T09:19:25;10.10;;;3.53;;
30233;SDS011;17046;52.074;4.748;2022-09-09T09:21:55;13.80;;;4.88;;
30233;SDS011;17046;52.074;4.748;2022-09-09T09:27:13;12.80;;;4.57;;
30233;SDS011;17046;52.074;4.748;2022-09-09T09:30:01;14.90;;;4.40;;
30233;SDS011;17046;52.074;4.748;2022-09-09T09:32:37;10.70;;;4.25;;
30233;SDS011;17046;52.074;4.748;2022-09-09T09:35:11;16.38;;;4.38;;
30233;SDS011;17046;52.074;4.748;2022-09-09T09:37:39;8.82;;;4.05;;
30233;SDS011;17046;52.074;4.748;2022-09-09T09:40:09;11.82;;;3.95;;
30233;SDS011;17046;52.074;4.748;2022-09-09T09:42:53;10.50;;;3.60;;
30233;SDS011;17046;52.074;4.748;2022-09-09T09:45:27;10.35;;;4.15;;
30233;SDS011;17046;52.074;4.748;2022-09-09T09:50:27;11.00;;;3.72;;
30233;SDS011;17046;52.074;4.748;2022-09-09T09:52:53;14.45;;;3.95;;
30233;SDS011;17046;52.074;4.748;2022-09-09T09:55:24;10.85;;;3.60;;
30233;SDS011;17046;52.074;4.748;2022-09-09T09:57:50;8.93;;;3.67;;
30233;SDS011;17046;52.074;4.748;2022-09-09T10:02:44;14.70;;;4.28;;
30233;SDS011;17046;52.074;4.748;2022-09-09T10:05:29;10.65;;;3.58;;
30233;SDS011;17046;52.074;4.748;2022-09-09T10:08:09;16.30;;;3.67;;
30233;SDS011;17046;52.074;4.748;2022-09-09T10:13:24;7.78;;;3.08;;
30233;SDS011;17046;52.074;4.748;2022-09-09T10:16:25;7.85;;;2.83;;
30233;SDS011;17046;52.074;4.748;2022-09-09T10:19:30;6.95;;;2.60;;
30233;SDS011;17046;52.074;4.748;2022-09-09T10:36:18;11.88;;;2.92;;
30233;SDS011;17046;52.074;4.748;2022-09-09T10:38:57;10.23;;;2.63;;
30233;SDS011;17046;52.074;4.748;2022-09-09T10:41:49;8.00;;;3.03;;
30233;SDS011;17046;52.074;4.748;2022-09-09T10:44:38;6.03;;;2.53;;
30233;SDS011;17046;52.074;4.748;2022-09-09T10:52:17;6.85;;;2.38;;
30233;SDS011;17046;52.074;4.748;2022-09-09T10:54:58;8.20;;;2.17;;
30233;SDS011;17046;52.074;4.748;2022-09-09T10:57:48;5.68;;;2.00;;
30233;SDS011;17046;52.074;4.748;2022-09-09T11:02:56;7.75;;;2.38;;
30233;SDS011;17046;52.074;4.748;2022-09-09T11:05:44;6.57;;;2.20;;
30233;SDS011;17046;52.074;4.748;2022-09-09T11:08:18;6.95;;;2.67;;
30233;SDS011;17046;52.074;4.748;2022-09-09T11:10:48;5.90;;;2.13;;
30233;SDS011;17046;52.074;4.748;2022-09-09T11:13:26;8.02;;;2.55;;
30233;SDS011;17046;52.074;4.748;2022-09-09T11:22:00;4.88;;;2.50;;
30233;SDS011;17046;52.074;4.748;2022-09-09T11:24:40;5.53;;;1.90;;
30233;SDS011;17046;52.074;4.748;2022-09-09T11:27:18;6.32;;;2.20;;
30233;SDS011;17046;52.074;4.748;2022-09-09T11:36:16;4.90;;;2.00;;
30233;SDS011;17046;52.074;4.748;2022-09-09T11:42:05;4.43;;;2.25;;
30233;SDS011;17046;52.074;4.748;2022-09-09T11:44:32;5.38;;;2.60;;
30233;SDS011;17046;52.074;4.748;2022-09-09T11:46:58;5.75;;;2.53;;
30233;SDS011;17046;52.074;4.748;2022-09-09T11:54:51;8.00;;;2.67;;
30233;SDS011;17046;52.074;4.748;2022-09-09T11:57:24;7.40;;;2.75;;
30233;SDS011;17046;52.074;4.748;2022-09-09T11:59:51;5.85;;;3.00;;
30233;SDS011;17046;52.074;4.748;2022-09-09T12:02:23;6.00;;;2.70;;
30233;SDS011;17046;52.074;4.748;2022-09-09T12:07:32;5.85;;;2.90;;
30233;SDS011;17046;52.074;4.748;2022-09-09T12:12:44;7.75;;;3.78;;
30233;SDS011;17046;52.074;4.748;2022-09-09T12:17:42;8.43;;;5.55;;
30233;SDS011;17046;52.074;4.748;2022-09-09T12:20:13;7.70;;;5.75;;
30233;SDS011;17046;52.074;4.748;2022-09-09T12:25:32;10.73;;;7.15;;
30233;SDS011;17046;52.074;4.748;2022-09-09T12:28:15;12.73;;;7.28;;
30233;SDS011;17046;52.074;4.748;2022-09-09T12:33:36;12.55;;;8.15;;
30233;SDS011;17046;52.074;4.748;2022-09-09T12:36:08;14.18;;;8.13;;
30233;SDS011;17046;52.074;4.748;2022-09-09T12:38:40;12.20;;;7.80;;
30233;SDS011;17046;52.074;4.748;2022-09-09T12:41:17;13.98;;;8.45;;
30233;SDS011;17046;52.074;4.748;2022-09-09T12:43:45;14.82;;;8.93;;
30233;SDS011;17046;52.074;4.748;2022-09-09T12:46:14;15.40;;;8.95;;
30233;SDS011;17046;52.074;4.748;2022-09-09T12:48:51;17.80;;;9.40;;
30233;SDS011;17046;52.074;4.748;2022-09-09T12:51:19;14.07;;;8.75;;
30233;SDS011;17046;52.074;4.748;2022-09-09T12:53:50;14.52;;;8.35;;
30233;SDS011;17046;52.074;4.748;2022-09-09T12:56:20;16.17;;;9.20;;
30233;SDS011;17046;52.074;4.748;2022-09-09T12:58:49;13.85;;;8.43;;
30233;SDS011;17046;52.074;4.748;2022-09-09T13:01:26;15.35;;;9.50;;
30233;SDS011;17046;52.074;4.748;2022-09-09T13:03:54;14.70;;;9.02;;
30233;SDS011;17046;52.074;4.748;2022-09-09T13:06:27;16.33;;;8.93;;
30233;SDS011;17046;52.074;4.748;2022-09-09T13:08:55;13.35;;;7.80;;
30233;SDS011;17046;52.074;4.748;2022-09-09T13:11:28;13.93;;;7.82;;
30233;SDS011;17046;52.074;4.748;2022-09-09T13:13:56;9.70;;;7.28;;
30233;SDS011;17046;52.074;4.748;2022-09-09T13:16:26;12.57;;;6.32;;
30233;SDS011;17046;52.074;4.748;2022-09-09T13:18:57;12.90;;;6.20;;
30233;SDS011;17046;52.074;4.748;2022-09-09T13:21:34;11.05;;;5.40;;
30233;SDS011;17046;52.074;4.748;2022-09-09T13:24:05;8.27;;;5.05;;
30233;SDS011;17046;52.074;4.748;2022-09-09T13:26:58;9.02;;;5.20;;
30233;SDS011;17046;52.074;4.748;2022-09-09T13:29:26;9.50;;;5.22;;
30233;SDS011;17046;52.074;4.748;2022-09-09T13:31:52;9.07;;;4.90;;
30233;SDS011;17046;52.074;4.748;2022-09-09T13:34:26;9.60;;;5.10;;
30233;SDS011;17046;52.074;4.748;2022-09-09T13:37:00;8.93;;;4.60;;
30233;SDS011;17046;52.074;4.748;2022-09-09T13:39:28;8.07;;;4.68;;
30233;SDS011;17046;52.074;4.748;2022-09-09T13:41:54;6.55;;;3.88;;
30233;SDS011;17046;52.074;4.748;2022-09-09T13:44:21;6.53;;;3.80;;
30233;SDS011;17046;52.074;4.748;2022-09-09T13:47:00;5.10;;;3.47;;
30233;SDS011;17046;52.074;4.748;2022-09-09T13:49:46;8.60;;;4.43;;
30233;SDS011;17046;52.074;4.748;2022-09-09T13:52:13;8.15;;;3.67;;
30233;SDS011;17046;52.074;4.748;2022-09-09T13:54:40;5.32;;;3.55;;
30233;SDS011;17046;52.074;4.748;2022-09-09T13:57:20;7.40;;;3.60;;
30233;SDS011;17046;52.074;4.748;2022-09-09T13:59:50;6.45;;;3.13;;
30233;SDS011;17046;52.074;4.748;2022-09-09T14:02:18;7.40;;;3.03;;
30233;SDS011;17046;52.074;4.748;2022-09-09T14:04:43;5.13;;;2.80;;
30233;SDS011;17046;52.074;4.748;2022-09-09T14:07:13;8.38;;;2.90;;
30233;SDS011;17046;52.074;4.748;2022-09-09T14:09:40;7.45;;;2.70;;
30233;SDS011;17046;52.074;4.748;2022-09-09T14:12:09;8.10;;;3.00;;
30233;SDS011;17046;52.074;4.748;2022-09-09T14:14:40;5.55;;;2.45;;
30233;SDS011;17046;52.074;4.748;2022-09-09T14:17:07;6.30;;;2.50;;
30233;SDS011;17046;52.074;4.748;2022-09-09T14:19:33;7.13;;;2.55;;
30233;SDS011;17046;52.074;4.748;2022-09-09T14:21:58;7.38;;;2.03;;
30233;SDS011;17046;52.074;4.748;2022-09-09T14:24:24;4.13;;;1.70;;
30233;SDS011;17046;52.074;4.748;2022-09-09T14:26:50;5.60;;;2.85;;
30233;SDS011;17046;52.074;4.748;2022-09-09T14:29:15;5.18;;;2.28;;
30233;SDS011;17046;52.074;4.748;2022-09-09T14:31:41;6.85;;;2.08;;
30233;SDS011;17046;52.074;4.748;2022-09-09T14:34:07;5.72;;;1.98;;
30233;SDS011;17046;52.074;4.748;2022-09-09T14:36:32;3.83;;;2.22;;
30233;SDS011;17046;52.074;4.748;2022-09-09T14:38:58;6.05;;;2.45;;
30233;SDS011;17046;52.074;4.748;2022-09-09T14:41:23;5.47;;;2.20;;
30233;SDS011;17046;52.074;4.748;2022-09-09T14:43:50;6.50;;;2.40;;
30233;SDS011;17046;52.074;4.748;2022-09-09T14:46:17;7.47;;;2.85;;
30233;SDS011;17046;52.074;4.748;2022-09-09T14:48:44;5.70;;;2.53;;
30233;SDS011;17046;52.074;4.748;2022-09-09T14:53:57;6.50;;;3.35;;
30233;SDS011;17046;52.074;4.748;2022-09-09T14:56:25;7.05;;;3.72;;
30233;SDS011;17046;52.074;4.748;2022-09-09T14:58:53;9.00;;;4.45;;
30233;SDS011;17046;52.074;4.748;2022-09-09T15:01:20;7.32;;;3.83;;
30233;SDS011;17046;52.074;4.748;2022-09-09T15:03:53;4.80;;;3.20;;
30233;SDS011;17046;52.074;4.748;2022-09-09T15:06:21;5.72;;;3.90;;
30233;SDS011;17046;52.074;4.748;2022-09-09T15:08:49;7.18;;;3.58;;
30233;SDS011;17046;52.074;4.748;2022-09-09T15:11:16;10.13;;;3.40;;
30233;SDS011;17046;52.074;4.748;2022-09-09T15:13:43;8.68;;;3.88;;
30233;SDS011;17046;52.074;4.748;2022-09-09T15:16:16;7.55;;;3.00;;
30233;SDS011;17046;52.074;4.748;2022-09-09T15:18:43;7.47;;;2.75;;
30233;SDS011;17046;52.074;4.748;2022-09-09T15:21:10;6.30;;;2.55;;
30233;SDS011;17046;52.074;4.748;2022-09-09T15:23:40;5.65;;;2.47;;
30233;SDS011;17046;52.074;4.748;2022-09-09T15:26:06;4.22;;;1.98;;
30233;SDS011;17046;52.074;4.748;2022-09-09T15:28:32;3.13;;;1.52;;
30233;SDS011;17046;52.074;4.748;2022-09-09T15:31:12;5.40;;;1.65;;
30233;SDS011;17046;52.074;4.748;2022-09-09T15:33:40;4.47;;;1.70;;
30233;SDS011;17046;52.074;4.748;2022-09-09T15:36:22;3.47;;;1.50;;
30233;SDS011;17046;52.074;4.748;2022-09-09T15:38:49;10.38;;;2.17;;
30233;SDS011;17046;52.074;4.748;2022-09-09T15:41:16;6.22;;;1.60;;
30233;SDS011;17046;52.074;4.748;2022-09-09T15:43:52;5.50;;;1.67;;
30233;SDS011;17046;52.074;4.748;2022-09-09T15:49:13;5.72;;;1.70;;
30233;SDS011;17046;52.074;4.748;2022-09-09T15:51:44;7.30;;;1.83;;
30233;SDS011;17046;52.074;4.748;2022-09-09T15:54:15;3.92;;;1.73;;
30233;SDS011;17046;52.074;4.748;2022-09-09T15:56:43;6.82;;;1.65;;
30233;SDS011;17046;52.074;4.748;2022-09-09T15:59:10;7.80;;;1.70;;
30233;SDS011;17046;52.074;4.748;2022-09-09T16:01:36;8.70;;;1.80;;
30233;SDS011;17046;52.074;4.748;2022-09-09T16:04:04;6.35;;;2.13;;
30233;SDS011;17046;52.074;4.748;2022-09-09T16:06:30;6.63;;;2.20;;
30233;SDS011;17046;52.074;4.748;2022-09-09T16:08:56;7.18;;;1.85;;
30233;SDS011;17046;52.074;4.748;2022-09-09T16:11:27;9.73;;;2.15;;
30233;SDS011;17046;52.074;4.748;2022-09-09T16:13:57;5.78;;;2.78;;
30233;SDS011;17046;52.074;4.748;2022-09-09T16:16:24;7.18;;;2.70;;
30233;SDS011;17046;52.074;4.748;2022-09-09T16:18:53;10.18;;;3.53;;
30233;SDS011;17046;52.074;4.748;2022-09-09T16:21:21;9.23;;;3.42;;
30233;SDS011;17046;52.074;4.748;2022-09-09T16:23:54;9.32;;;3.40;;
30233;SDS011;17046;52.074;4.748;2022-09-09T16:26:20;9.90;;;3.58;;
30233;SDS011;17046;52.074;4.748;2022-09-09T16:28:47;11.05;;;4.22;;
30233;SDS011;17046;52.074;4.748;2022-09-09T16:31:16;9.73;;;3.50;;
30233;SDS011;17046;52.074;4.748;2022-09-09T16:33:43;12.20;;;3.47;;
30233;SDS011;17046;52.074;4.748;2022-09-09T16:36:11;7.80;;;3.08;;
30233;SDS011;17046;52.074;4.748;2022-09-09T16:38:38;8.82;;;3.55;;
30233;SDS011;17046;52.074;4.748;2022-09-09T16:41:04;11.27;;;3.17;;
30233;SDS011;17046;52.074;4.748;2022-09-09T16:43:31;11.40;;;3.65;;
30233;SDS011;17046;52.074;4.748;2022-09-09T16:45:58;9.55;;;4.63;;
30233;SDS011;17046;52.074;4.748;2022-09-09T16:48:25;7.80;;;4.70;;
30233;SDS011;17046;52.074;4.748;2022-09-09T16:51:04;7.18;;;3.78;;
30233;SDS011;17046;52.074;4.748;2022-09-09T16:53:31;7.15;;;4.57;;
30233;SDS011;17046;52.074;4.748;2022-09-09T16:55:58;8.60;;;4.47;;
30233;SDS011;17046;52.074;4.748;2022-09-09T16:58:29;7.43;;;4.65;;
30233;SDS011;17046;52.074;4.748;2022-09-09T17:00:58;8.88;;;4.95;;
30233;SDS011;17046;52.074;4.748;2022-09-09T17:03:24;12.93;;;5.18;;
30233;SDS011;17046;52.074;4.748;2022-09-09T17:05:50;13.35;;;6.88;;
30233;SDS011;17046;52.074;4.748;2022-09-09T17:08:16;10.30;;;5.18;;
30233;SDS011;17046;52.074;4.748;2022-09-09T17:10:41;9.38;;;4.82;;
30233;SDS011;17046;52.074;4.748;2022-09-09T17:13:07;7.43;;;4.70;;
30233;SDS011;17046;52.074;4.748;2022-09-09T17:15:33;11.90;;;5.72;;
30233;SDS011;17046;52.074;4.748;2022-09-09T17:18:05;13.23;;;5.97;;
30233;SDS011;17046;52.074;4.748;2022-09-09T17:20:30;9.32;;;5.80;;